Terminal Aerodrome Forecast
Issued by NWS Jacksonville, FL

Home | Current Version | Previous Version | Text Only | Print | Product List | Glossary On
Versions: 1 2 3 4 5 6 7 8 9 10 11 12 13 14 15 16 17 18 19 20 21 22 23 24 25 26 27
000
FTUS42 KJAX 060241 AAA
TAFGNV
TAF AMD
KGNV 060241Z 0603/0624 VRB03KT P6SM SCT010 BKN050 OVC070
     FM060500 32009G15KT P6SM VCSH SCT010 BKN020 OVC050
     FM061100 02007KT P6SM SCT008 BKN015 OVC035
     FM061500 03008KT P6SM VCSH BKN007 OVC020=

USA.gov is the U.S. government's official web portal to all federal, state and local government web resources and services.